Time;durP1;ratioP1;P1;durP2;ratioP2;P2;SDS_P1;SDS_P2;PMS_P1;PMS_P2;Temp;Humidity;BMP_temperature;BMP_pressure;BME280_temperature;BME280_humidity;BME280_pressure;Samples;Min_cycle;Max_cycle;Signal;HPM_P1;HPM_P2
2023/10/11 00:03:05;;;;;;;1999.90;999.90;;;18.10;99.90;;;;;;4957384;29;20494;-72
2023/10/11 00:05:39;;;;;;;1999.90;999.90;;;18.10;99.90;;;;;;4951904;29;20020;-71
2023/10/11 00:08:08;;;;;;;1999.90;999.90;;;18.10;99.90;;;;;;4939718;29;20032;-71
2023/10/11 00:10:43;;;;;;;1999.90;999.90;;;18.10;99.90;;;;;;4956795;29;20023;-72
2023/10/11 00:13:12;;;;;;;1999.90;999.90;;;18.10;99.90;;;;;;4937781;29;20036;-80
2023/10/11 00:15:38;;;;;;;1999.90;999.90;;;18.10;99.90;;;;;;4937503;29;20038;-80
2023/10/11 00:18:04;;;;;;;1999.90;999.90;;;18.10;99.90;;;;;;4937575;29;20028;-72
2023/10/11 00:20:47;;;;;;;1999.90;999.90;;;18.10;99.90;;;;;;4937342;29;20527;-71
2023/10/11 00:23:13;;;;;;;1999.90;999.90;;;18.10;99.90;;;;;;4937409;29;20030;-71
2023/10/11 00:25:39;;;;;;;1999.90;999.90;;;17.90;99.90;;;;;;4937355;29;20039;-80
2023/10/11 00:28:08;;;;;;;1999.90;999.90;;;18.00;99.90;;;;;;4937680;29;20384;-71
2023/10/11 00:30:38;;;;;;;1999.90;999.90;;;17.90;99.90;;;;;;4937098;29;20016;-72
2023/10/11 00:33:04;;;;;;;1999.90;999.90;;;17.90;99.90;;;;;;4937738;29;20016;-72
2023/10/11 00:35:32;;;;;;;1999.90;999.90;;;17.80;99.90;;;;;;4937405;29;20408;-72
2023/10/11 00:38:00;;;;;;;1999.90;999.90;;;17.90;99.90;;;;;;4944441;29;20510;-79
2023/10/11 00:40:31;;;;;;;1999.90;999.90;;;17.80;99.90;;;;;;4952515;29;20537;-72
2023/10/11 00:42:58;;;;;;;1999.90;999.90;;;17.80;99.90;;;;;;4956371;29;20019;-79
2023/10/11 00:45:30;;;;;;;1999.90;999.90;;;17.80;99.90;;;;;;4955978;29;20430;-71
2023/10/11 00:47:59;;;;;;;1999.90;999.90;;;17.70;99.90;;;;;;4918252;29;20032;-72
2023/10/11 00:50:26;;;;;;;1999.90;999.90;;;17.70;99.90;;;;;;4908592;29;20053;-80
2023/10/11 00:52:55;;;;;;;1999.90;999.90;;;17.70;99.90;;;;;;4937062;29;20501;-72
2023/10/11 00:55:23;;;;;;;1999.90;999.90;;;17.70;99.90;;;;;;4936689;29;20031;-72
2023/10/11 00:57:53;;;;;;;1999.90;999.90;;;17.80;99.90;;;;;;4936733;29;20090;-77
2023/10/11 01:00:23;;;;;;;1999.90;999.90;;;17.80;99.90;;;;;;4943009;29;20030;-72
2023/10/11 01:02:51;;;;;;;1999.90;999.90;;;17.90;99.90;;;;;;4955996;29;20019;-80
2023/10/11 01:05:18;;;;;;;1999.90;999.90;;;18.00;99.90;;;;;;4953959;28;20028;-72
2023/10/11 01:07:50;;;;;;;1999.90;999.90;;;18.10;99.90;;;;;;4936153;29;20016;-80
2023/10/11 01:10:23;;;;;;;1999.90;999.90;;;18.10;99.90;;;;;;4936403;29;20179;-72
2023/10/11 01:12:49;;;;;;;1999.90;999.90;;;18.20;99.90;;;;;;4920253;29;20079;-72
2023/10/11 01:15:19;;;;;;;1999.90;999.90;;;18.20;99.90;;;;;;4917538;29;20421;-71
2023/10/11 01:17:45;;;;;;;1999.90;999.90;;;18.30;99.90;;;;;;4917556;29;20052;-79
2023/10/11 01:20:13;;;;;;;1999.90;999.90;;;18.30;99.90;;;;;;4919305;29;20052;-72
2023/10/11 01:22:43;;;;;;;1999.90;999.90;;;18.20;99.90;;;;;;4935694;29;20039;-79
2023/10/11 01:25:18;;;;;;;1999.90;999.90;;;18.20;99.90;;;;;;4935993;29;20106;-72
2023/10/11 01:27:47;;;;;;;1999.90;999.90;;;18.20;99.90;;;;;;4936531;29;20035;-71
2023/10/11 01:30:14;;;;;;;1999.90;999.90;;;18.20;99.90;;;;;;4935939;29;20107;-72
2023/10/11 01:32:43;;;;;;;1999.90;999.90;;;18.20;99.90;;;;;;4936294;29;20028;-80
2023/10/11 01:35:19;;;;;;;1999.90;999.90;;;18.20;99.90;;;;;;4936235;29;20038;-72
2023/10/11 01:37:48;;;;;;;1999.90;999.90;;;18.30;99.90;;;;;;4941502;29;20377;-72
2023/10/11 01:40:26;;;;;;;1999.90;999.90;;;18.30;99.90;;;;;;4941814;29;20075;-72
2023/10/11 01:42:52;;;;;;;1999.90;999.90;;;18.30;99.90;;;;;;4936477;29;20023;-80
2023/10/11 01:45:19;;;;;;;1999.90;999.90;;;18.30;99.90;;;;;;4917457;29;20055;-80
2023/10/11 01:47:46;;;;;;;1999.90;999.90;;;18.30;99.90;;;;;;4917265;29;20035;-80
2023/10/11 01:50:13;;;;;;;1999.90;999.90;;;18.30;99.90;;;;;;4916357;29;20034;-80
2023/10/11 01:52:40;;;;;;;1999.90;999.90;;;18.30;99.90;;;;;;4916875;29;20039;-80
2023/10/11 01:55:10;;;;;;;1999.90;999.90;;;18.30;99.90;;;;;;4916721;29;20024;-72
2023/10/11 01:57:38;;;;;;;1999.90;999.90;;;18.40;99.90;;;;;;4917652;29;20023;-81
2023/10/11 02:00:13;;;;;;;1999.90;999.90;;;18.40;99.90;;;;;;4917781;29;20400;-72
2023/10/11 02:02:52;;;;;;;1999.90;999.90;;;18.50;99.90;;;;;;4918540;29;20053;-80
2023/10/11 02:05:21;;;;;;;1999.90;999.90;;;18.60;99.90;;;;;;4918191;29;20467;-72
2023/10/11 02:07:46;;;;;;;1999.90;999.90;;;18.50;99.90;;;;;;4916801;29;20031;-72
2023/10/11 02:10:12;;;;;;;1999.90;999.90;;;18.50;99.90;;;;;;4899452;29;20480;-72
2023/10/11 02:12:47;;;;;;;1999.90;999.90;;;18.60;99.90;;;;;;4902055;29;20029;-79
2023/10/11 02:15:21;;;;;;;1999.90;999.90;;;18.50;99.90;;;;;;4897163;29;20071;-80
2023/10/11 02:17:48;;;;;;;1999.90;999.90;;;18.50;99.90;;;;;;4898184;29;20024;-72
2023/10/11 02:20:20;;;;;;;1999.90;999.90;;;18.60;99.90;;;;;;4899978;29;20489;-73
2023/10/11 02:22:50;;;;;;;1999.90;999.90;;;18.60;99.90;;;;;;4916543;29;20151;-80
2023/10/11 02:25:16;;;;;;;1999.90;999.90;;;18.50;99.90;;;;;;4899426;29;20036;-80
2023/10/11 02:27:42;;;;;;;1999.90;999.90;;;18.50;99.90;;;;;;4916898;29;20488;-80
2023/10/11 02:30:13;;;;;;;1999.90;999.90;;;18.50;99.90;;;;;;4915967;29;20042;-73
2023/10/11 02:32:42;;;;;;;1999.90;999.90;;;18.60;99.90;;;;;;4916555;29;20016;-73
2023/10/11 02:35:13;;;;;;;1999.90;999.90;;;18.60;99.90;;;;;;4916361;29;20033;-80
2023/10/11 02:37:45;;;;;;;1999.90;999.90;;;18.60;99.90;;;;;;4907101;29;20032;-72
2023/10/11 02:40:22;;;;;;;1999.90;999.90;;;18.60;99.90;;;;;;4916374;29;20071;-72
2023/10/11 02:42:50;;;;;;;1999.90;999.90;;;18.60;99.90;;;;;;4916594;29;20032;-72
2023/10/11 02:45:21;;;;;;;1999.90;999.90;;;18.60;99.90;;;;;;4949334;29;20051;-72
2023/10/11 02:47:47;;;;;;;1999.90;999.90;;;18.60;99.90;;;;;;4954340;29;20086;-81
2023/10/11 02:50:13;;;;;;;1999.90;999.90;;;18.70;99.90;;;;;;4950394;29;20031;-73
2023/10/11 02:52:41;;;;;;;1999.90;999.90;;;18.70;99.90;;;;;;4929161;29;20027;-80
2023/10/11 02:57:45;;;;;;;1999.90;999.90;;;18.60;99.90;;;;;;4946657;29;20087;-72
2023/10/11 03:00:23;;;;;;;1999.90;999.90;;;18.60;99.90;;;;;;4940227;29;20027;-72
2023/10/11 03:02:54;;;;;;;1999.90;999.90;;;18.50;99.90;;;;;;4944055;29;20034;-80
2023/10/11 03:05:26;;;;;;;1999.90;999.90;;;18.50;99.90;;;;;;4934988;29;20123;-80
2023/10/11 03:07:53;;;;;;;1999.90;999.90;;;18.50;99.90;;;;;;4935119;29;20447;-81
2023/10/11 03:10:18;;;;;;;1999.90;999.90;;;18.50;99.90;;;;;;4934738;29;20032;-72
2023/10/11 03:12:44;;;;;;;1999.90;999.90;;;18.50;99.90;;;;;;4919509;29;20051;-72
2023/10/11 03:15:11;;;;;;;1999.90;999.90;;;18.50;99.90;;;;;;4917606;29;20107;-80
2023/10/11 03:17:45;;;;;;;1999.90;999.90;;;18.40;99.90;;;;;;4917933;29;20079;-72
2023/10/11 03:20:25;;;;;;;1999.90;999.90;;;18.30;99.90;;;;;;4920186;29;20052;-81
2023/10/11 03:22:51;;;;;;;1999.90;999.90;;;18.20;99.90;;;;;;4935254;29;20403;-80
2023/10/11 03:25:19;;;;;;;1999.90;999.90;;;18.20;99.90;;;;;;4934808;29;20024;-72
2023/10/11 03:27:49;;;;;;;1999.90;999.90;;;18.20;99.90;;;;;;4936147;29;20039;-79
2023/10/11 03:30:15;;;;;;;1999.90;999.90;;;18.20;99.90;;;;;;4938111;29;20035;-72
2023/10/11 03:32:44;;;;;;;1999.90;999.90;;;18.20;99.90;;;;;;4938741;29;20016;-80
2023/10/11 03:35:11;;;;;;;1999.90;999.90;;;18.20;99.90;;;;;;4938314;29;20534;-72
2023/10/11 03:37:40;;;;;;;1999.90;999.90;;;18.10;99.90;;;;;;4929656;29;20032;-72
2023/10/11 03:40:26;;;;;;;1999.90;999.90;;;18.10;99.90;;;;;;4945346;29;20035;-72
2023/10/11 03:42:59;;;;;;;1999.90;999.90;;;18.00;99.90;;;;;;4938319;29;20032;-80
2023/10/11 03:45:27;;;;;;;1999.90;999.90;;;18.00;99.90;;;;;;4955935;29;20515;-80
2023/10/11 03:47:58;;;;;;;1999.90;999.90;;;18.00;99.90;;;;;;4957266;29;20031;-72
2023/10/11 03:50:34;;;;;;;1999.90;999.90;;;18.00;99.90;;;;;;4952884;29;20393;-73
2023/10/11 03:53:10;;;;;;;1999.90;999.90;;;18.00;99.90;;;;;;4938057;29;20459;-72
2023/10/11 03:55:45;;;;;;;1999.90;999.90;;;17.90;99.90;;;;;;4906590;29;20059;-72
2023/10/11 03:58:22;;;;;;;1999.90;999.90;;;17.90;99.90;;;;;;4937258;29;20032;-81
2023/10/11 04:00:48;;;;;;;1999.90;999.90;;;17.70;99.90;;;;;;4947714;29;20487;-73
2023/10/11 04:03:17;;;;;;;1999.90;999.90;;;17.70;99.90;;;;;;4943354;29;20039;-81
2023/10/11 04:05:47;;;;;;;1999.90;999.90;;;17.80;99.90;;;;;;4937877;29;20020;-72
2023/10/11 04:08:20;;;;;;;1999.90;999.90;;;17.70;99.90;;;;;;4937797;29;20178;-72
2023/10/11 04:10:49;;;;;;;1999.90;999.90;;;17.60;99.90;;;;;;4937599;29;20567;-72
2023/10/11 04:13:18;;;;;;;1999.90;999.90;;;17.40;99.90;;;;;;4918807;29;20031;-81
2023/10/11 04:15:49;;;;;;;1999.90;999.90;;;17.30;99.90;;;;;;4918782;29;20024;-81
2023/10/11 04:18:37;;;;;;;1999.90;999.90;;;17.20;99.90;;;;;;4918808;29;20028;-80
2023/10/11 04:23:36;;;;;;;1999.90;999.90;;;17.20;99.90;;;;;;4939096;29;20070;-80
2023/10/11 04:26:23;;;;;;;1999.90;999.90;;;17.20;99.90;;;;;;4938766;29;20028;-72
2023/10/11 04:28:51;;;;;;;1999.90;999.90;;;17.20;99.90;;;;;;4937467;29;20482;-72
2023/10/11 04:31:36;;;;;;;1999.90;999.90;;;17.10;99.90;;;;;;4937606;29;20399;-80
2023/10/11 04:34:11;;;;;;;1999.90;999.90;;;17.00;99.90;;;;;;4937156;29;20487;-79
2023/10/11 04:36:42;;;;;;;1999.90;999.90;;;16.90;99.90;;;;;;4938559;29;20016;-75
2023/10/11 04:39:27;;;;;;;1999.90;999.90;;;16.90;99.90;;;;;;4944531;29;20099;-80
2023/10/11 04:41:57;;;;;;;1999.90;999.90;;;16.80;99.90;;;;;;4956393;29;20102;-72
2023/10/11 04:44:34;;;;;;;1999.90;999.90;;;16.80;99.90;;;;;;4956295;29;20186;-80
2023/10/11 04:47:00;;;;;;;1999.90;999.90;;;16.80;99.90;;;;;;4945905;29;20499;-80
2023/10/11 04:49:30;;;;;;;1999.90;999.90;;;16.60;99.90;;;;;;4941582;29;20173;-80
2023/10/11 04:51:57;;;;;;;1999.90;999.90;;;16.60;99.90;;;;;;4936388;29;20078;-72
2023/10/11 04:54:43;;;;;;;1999.90;999.90;;;16.50;99.90;;;;;;4937058;29;20016;-73
2023/10/11 04:57:17;;;;;;;1999.90;999.90;;;16.40;99.90;;;;;;4940867;29;20019;-72
2023/10/11 04:59:43;;;;;;;1999.90;999.90;;;16.30;99.90;;;;;;4944989;29;20035;-80
2023/10/11 05:02:11;;;;;;;1999.90;999.90;;;16.20;99.90;;;;;;4950692;29;20020;-72
2023/10/11 05:04:42;;;;;;;1999.90;999.90;;;16.10;99.90;;;;;;4935225;29;20440;-80
2023/10/11 05:07:09;;;;;;;1999.90;999.90;;;16.10;99.90;;;;;;4946935;29;20035;-72
2023/10/11 05:09:39;;;;;;;1999.90;999.90;;;16.10;99.90;;;;;;4942223;29;20032;-80
2023/10/11 05:12:12;;;;;;;1999.90;999.90;;;16.10;99.90;;;;;;4927908;29;20028;-73
2023/10/11 05:19:44;;;;;;;1999.90;999.90;;;15.90;99.90;;;;;;4935561;29;20032;-73
2023/10/11 05:22:17;;;;;;;1999.90;999.90;;;15.80;99.90;;;;;;4936243;29;20480;-73
2023/10/11 05:25:12;;;;;;;1999.90;999.90;;;15.80;99.90;;;;;;4936335;29;20057;-81
2023/10/11 05:27:47;;;;;;;1999.90;999.90;;;15.80;99.90;;;;;;4936160;29;20260;-80
2023/10/11 05:30:26;;;;;;;1999.90;999.90;;;15.70;99.90;;;;;;4935961;29;20115;-80
2023/10/11 05:33:15;;;;;;;1999.90;999.90;;;15.80;99.90;;;;;;4934378;29;20189;-72
2023/10/11 05:52:15;;;;;;;1999.90;999.90;;;15.20;99.90;;;;;;4929564;29;20043;-72
2023/10/11 05:54:41;;;;;;;1999.90;999.90;;;15.10;99.90;;;;;;4938187;29;20498;-80
2023/10/11 05:57:07;;;;;;;1999.90;999.90;;;15.10;99.90;;;;;;4937832;29;20095;-80
2023/10/11 05:59:37;;;;;;;1999.90;999.90;;;15.20;99.90;;;;;;4916720;29;20112;-73
2023/10/11 06:02:18;;;;;;;1999.90;999.90;;;15.10;99.90;;;;;;4950478;29;20489;-72
2023/10/11 06:04:45;;;;;;;1999.90;999.90;;;15.10;99.90;;;;;;4921083;29;20479;-80
2023/10/11 06:07:13;;;;;;;1999.90;999.90;;;15.00;99.90;;;;;;4931206;29;20121;-80
2023/10/11 06:09:52;;;;;;;1999.90;999.90;;;15.00;99.90;;;;;;4923159;29;20032;-81
2023/10/11 06:12:22;;;;;;;1999.90;999.90;;;15.10;99.90;;;;;;4928410;29;20052;-80
2023/10/11 06:14:52;;;;;;;1999.90;999.90;;;15.00;99.90;;;;;;4927453;29;20606;-73
2023/10/11 06:17:32;;;;;;;1999.90;999.90;;;15.00;99.90;;;;;;4946020;29;20038;-80
2023/10/11 06:20:10;;;;;;;1999.90;999.90;;;15.00;99.90;;;;;;4954795;29;20051;-73
2023/10/11 06:22:36;;;;;;;1999.90;999.90;;;15.00;99.90;;;;;;4935374;29;20070;-80
2023/10/11 06:25:07;;;;;;;1999.90;999.90;;;15.10;99.90;;;;;;4947206;29;20059;-72
2023/10/11 06:30:17;;;;;;;1999.90;999.90;;;15.10;99.90;;;;;;4937459;29;20549;-80
2023/10/11 06:32:43;;;;;;;1999.90;999.90;;;15.10;99.90;;;;;;4933723;29;20028;-80
2023/10/11 06:35:16;;;;;;;1999.90;999.90;;;15.20;99.90;;;;;;4935256;29;20022;-80
2023/10/11 06:37:42;;;;;;;1999.90;999.90;;;15.20;99.90;;;;;;4942555;29;20027;-80
2023/10/11 06:40:14;;;;;;;1999.90;999.90;;;15.10;99.90;;;;;;4947314;29;20453;-72
2023/10/11 06:42:42;;;;;;;1999.90;999.90;;;15.10;99.90;;;;;;4954297;29;20447;-72
2023/10/11 06:45:16;;;;;;;1999.90;999.90;;;15.10;99.90;;;;;;4954071;29;20102;-80
2023/10/11 06:47:43;;;;;;;1999.90;999.90;;;15.10;99.90;;;;;;4949506;29;20038;-80
2023/10/11 06:50:12;;;;;;;1999.90;999.90;;;15.10;99.90;;;;;;4932872;29;20027;-72
2023/10/11 06:52:43;;;;;;;1999.90;999.90;;;15.00;99.90;;;;;;4932820;29;20091;-73
2023/10/11 06:57:40;;;;;;;1999.90;999.90;;;15.10;99.90;;;;;;4933505;29;20024;-80
2023/10/11 07:00:29;;;;;;;1999.90;999.90;;;15.20;99.90;;;;;;4942794;29;20054;-80
2023/10/11 07:03:08;;;;;;;1999.90;999.90;;;15.10;99.90;;;;;;4940435;29;20063;-73
2023/10/11 07:05:40;;;;;;;1999.90;999.90;;;15.20;99.90;;;;;;4939010;29;20024;-73
2023/10/11 07:08:08;;;;;;;1999.90;999.90;;;15.30;99.90;;;;;;4938545;29;20028;-80
2023/10/11 07:10:34;;;;;;;1999.90;999.90;;;15.40;99.90;;;;;;4921082;29;20446;-81
2023/10/11 07:13:11;;;;;;;1999.90;999.90;;;15.40;99.90;;;;;;4938575;29;20032;-80
2023/10/11 07:15:41;;;;;;;1999.90;999.90;;;15.40;99.90;;;;;;4938910;29;20032;-81
2023/10/11 07:18:10;;;;;;;1999.90;999.90;;;15.50;99.90;;;;;;4940245;29;20035;-73
2023/10/11 07:20:55;;;;;;;1999.90;999.90;;;15.60;99.90;;;;;;4957749;29;20529;-72
2023/10/11 07:23:20;;;;;;;1999.90;999.90;;;15.60;99.90;;;;;;4957631;29;20042;-81
2023/10/11 07:28:37;;;;;;;1999.90;999.90;;;15.60;99.90;;;;;;4957536;29;20050;-81
2023/10/11 07:31:04;;;;;;;1999.90;999.90;;;15.70;99.90;;;;;;4957489;29;20031;-73
2023/10/11 07:33:31;;;;;;;1999.90;999.90;;;15.60;99.90;;;;;;4957529;29;20030;-81
2023/10/11 07:35:59;;;;;;;1999.90;999.90;;;15.70;99.90;;;;;;4944757;29;20103;-80
2023/10/11 07:38:32;;;;;;;1999.90;999.90;;;15.70;99.90;;;;;;4945625;29;20091;-72
2023/10/11 07:41:05;;;;;;;1999.90;999.90;;;15.80;99.90;;;;;;4956947;29;20086;-79
2023/10/11 07:43:32;;;;;;;1999.90;999.90;;;16.00;99.90;;;;;;4957152;29;20051;-72
2023/10/11 07:46:01;;;;;;;1999.90;999.90;;;16.00;99.90;;;;;;4957328;29;20043;-80
2023/10/11 07:48:31;;;;;;;1999.90;999.90;;;16.10;99.90;;;;;;4957155;29;20102;-79
2023/10/11 07:51:03;;;;;;;1999.90;999.90;;;16.10;99.90;;;;;;4953919;29;20107;-79
2023/10/11 07:53:28;;;;;;;1999.90;999.90;;;16.20;99.90;;;;;;4938100;29;20028;-79
2023/10/11 07:55:57;;;;;;;1999.90;999.90;;;16.30;99.90;;;;;;4937979;29;20034;-73
2023/10/11 07:58:32;;;;;;;1999.90;999.90;;;16.50;99.90;;;;;;4937978;29;20399;-73
2023/10/11 08:01:15;;;;;;;1999.90;999.90;;;16.70;99.90;;;;;;4949205;29;20027;-72
2023/10/11 08:03:46;;;;;;;1999.90;999.90;;;16.70;99.90;;;;;;4954977;29;20031;-72
2023/10/11 08:06:13;;;;;;;1999.90;999.90;;;16.80;99.90;;;;;;4940337;29;20058;-72
2023/10/11 08:08:40;;;;;;;1999.90;999.90;;;17.00;99.90;;;;;;4945757;29;20554;-72
2023/10/11 08:11:18;;;;;;;1999.90;999.90;;;17.10;99.90;;;;;;4937573;29;20047;-72
2023/10/11 08:13:46;;;;;;;1999.90;999.90;;;17.20;99.90;;;;;;4937916;29;20026;-79
2023/10/11 08:16:13;;;;;;;1999.90;999.90;;;17.60;99.90;;;;;;4947018;29;20103;-73
2023/10/11 08:18:39;;;;;;;1999.90;999.90;;;18.40;99.90;;;;;;4937783;29;20024;-80
2023/10/11 08:21:05;;;;;;;1999.90;999.90;;;18.30;99.90;;;;;;4937442;29;20039;-73
2023/10/11 08:23:31;;;;;;;1999.90;999.90;;;19.10;99.90;;;;;;4936060;29;20079;-73
2023/10/11 08:25:58;;;;;;;1999.90;999.90;;;20.50;99.90;;;;;;4937429;29;20036;-80
2023/10/11 08:28:34;;;;;;;1999.90;999.90;;;20.90;99.90;;;;;;4937468;29;20040;-80
2023/10/11 08:31:00;;;;;;;1999.90;999.90;;;21.10;99.90;;;;;;4937468;29;20483;-80
2023/10/11 08:33:30;;;;;;;1999.90;999.90;;;21.80;99.90;;;;;;4937260;29;20027;-73
2023/10/11 08:35:56;;;;;;;1999.90;999.90;;;22.80;99.90;;;;;;4937068;29;20034;-73
2023/10/11 08:38:26;;;;;;;1999.90;999.90;;;22.80;99.90;;;;;;4946453;29;20033;-73
2023/10/11 08:40:58;;;;;;;1999.90;999.90;;;23.00;99.90;;;;;;4938961;29;20028;-80
2023/10/11 08:43:25;;;;;;;1999.90;999.90;;;23.50;99.90;;;;;;4938821;29;20099;-80
2023/10/11 08:46:00;;;;;;;1999.90;999.90;;;24.60;99.90;;;;;;4956259;29;20773;-80
2023/10/11 08:48:27;;;;;;;1999.90;999.90;;;25.40;99.90;;;;;;4955789;29;20027;-73
2023/10/11 08:50:56;;;;;;;1999.90;999.90;;;25.70;99.90;;;;;;4954940;29;20031;-73
2023/10/11 08:53:22;;;;;;;1999.90;999.90;;;26.50;99.90;;;;;;4936843;29;20028;-80
2023/10/11 08:55:56;;;;;;;1999.90;999.90;;;26.50;99.90;;;;;;4940663;29;20056;-80
2023/10/11 08:58:29;;;;;;;1999.90;999.90;;;26.70;99.90;;;;;;4956001;29;20031;-73
2023/10/11 09:00:56;;;;;;;1999.90;999.90;;;27.00;99.90;;;;;;4956057;29;20024;-73
2023/10/11 09:03:26;;;;;;;1999.90;999.90;;;26.70;99.90;;;;;;4955784;29;20027;-73
2023/10/11 09:05:58;;;;;;;1999.90;999.90;;;26.80;99.90;;;;;;4948388;29;20027;-80
2023/10/11 09:08:27;;;;;;;1999.90;999.90;;;26.60;99.90;;;;;;4936411;29;20514;-74
2023/10/11 09:11:14;;;;;;;1999.90;999.90;;;26.40;99.90;;;;;;4936594;29;20028;-80
2023/10/11 09:13:40;;;;;;;1999.90;999.90;;;26.70;99.90;;;;;;4936329;29;20514;-73
2023/10/11 09:16:09;;;;;;;1999.90;999.90;;;26.70;99.90;;;;;;4936549;29;20476;-73
2023/10/11 09:18:37;;;;;;;1999.90;999.90;;;26.60;99.90;;;;;;4936474;29;20023;-80
2023/10/11 09:21:17;;;;;;;1999.90;999.90;;;25.40;99.90;;;;;;4936527;29;20098;-79
2023/10/11 09:23:47;;;;;;;1999.90;999.90;;;23.60;99.90;;;;;;4936464;29;20055;-73
2023/10/11 09:26:32;;;;;;;1999.90;999.90;;;22.90;99.90;;;;;;4935373;29;20092;-73
2023/10/11 09:29:02;;;;;;;1999.90;999.90;;;22.20;99.90;;;;;;4936425;29;20052;-73
2023/10/11 09:31:30;;;;;;;1999.90;999.90;;;21.70;99.90;;;;;;4919048;29;20036;-80
2023/10/11 09:34:07;;;;;;;1999.90;999.90;;;21.90;99.90;;;;;;4936028;29;20439;-73
2023/10/11 09:36:33;;;;;;;1999.90;999.90;;;21.60;99.90;;;;;;4936001;29;20054;-73
2023/10/11 09:39:03;;;;;;;1999.90;999.90;;;21.50;99.90;;;;;;4946235;29;20034;-80
2023/10/11 09:41:39;;;;;;;1999.90;999.90;;;21.60;99.90;;;;;;4934621;29;20043;-73
2023/10/11 09:44:07;;;;;;;1999.90;999.90;;;21.70;99.90;;;;;;4942960;29;20053;-79
2023/10/11 09:46:34;;;;;;;1999.90;999.90;;;21.70;99.90;;;;;;4955061;29;20039;-79
2023/10/11 09:49:01;;;;;;;1999.90;999.90;;;21.70;99.90;;;;;;4954573;29;20038;-79
2023/10/11 09:51:27;;;;;;;1999.90;999.90;;;21.80;99.90;;;;;;4945556;29;20024;-79
2023/10/11 09:53:53;;;;;;;1999.90;999.90;;;22.00;99.90;;;;;;4916137;29;20509;-73
2023/10/11 09:56:40;;;;;;;1999.90;999.90;;;21.80;99.90;;;;;;4899732;29;20020;-79
2023/10/11 09:59:41;;;;;;;1999.90;999.90;;;21.90;99.90;;;;;;4916759;29;20448;-78
2023/10/11 10:02:34;;;;;;;1999.90;999.90;;;21.80;99.90;;;;;;4916903;29;20059;-78
2023/10/11 10:05:04;;;;;;;1999.90;999.90;;;21.80;99.90;;;;;;4916395;29;20052;-73
2023/10/11 10:10:16;;;;;;;1999.90;999.90;;;22.50;99.90;;;;;;4935349;29;20491;-72
2023/10/11 10:12:43;;;;;;;1999.90;999.90;;;22.60;99.90;;;;;;4935340;29;20027;-79
2023/10/11 10:15:13;;;;;;;1999.90;999.90;;;22.70;99.90;;;;;;4935423;29;20086;-79
2023/10/11 10:18:00;;;;;;;1999.90;999.90;;;22.80;99.90;;;;;;4935766;29;20091;-73
2023/10/11 10:20:41;;;;;;;1999.90;999.90;;;22.70;99.90;;;;;;4935612;29;20459;-72
2023/10/11 10:23:15;;;;;;;1999.90;999.90;;;22.90;99.90;;;;;;4935517;29;20398;-79
2023/10/11 10:25:51;;;;;;;1999.90;999.90;;;23.10;99.90;;;;;;4935471;29;20035;-79
2023/10/11 10:28:32;;;;;;;1999.90;999.90;;;23.10;99.90;;;;;;4935401;29;20028;-79
2023/10/11 10:31:04;;;;;;;1999.90;999.90;;;23.30;99.90;;;;;;4935451;29;20031;-73
2023/10/11 10:33:35;;;;;;;1999.90;999.90;;;23.30;99.90;;;;;;4935503;29;20033;-73
2023/10/11 10:36:20;;;;;;;1999.90;999.90;;;23.40;99.90;;;;;;4935255;29;20401;-73
2023/10/11 10:38:58;;;;;;;1999.90;999.90;;;23.50;99.90;;;;;;4947499;29;20031;-78
2023/10/11 10:41:25;;;;;;;1999.90;999.90;;;23.40;99.90;;;;;;4958413;29;20439;-79
2023/10/11 10:44:17;;;;;;;1999.90;999.90;;;23.60;99.90;;;;;;4958349;29;20035;-79
2023/10/11 10:46:59;;;;;;;1999.90;999.90;;;23.60;99.90;;;;;;4953983;29;20040;-73
2023/10/11 10:49:47;;;;;;;1999.90;999.90;;;23.90;99.90;;;;;;4958312;29;20019;-78
2023/10/11 10:52:20;;;;;;;1999.90;999.90;;;23.80;99.90;;;;;;4949034;29;20031;-78
2023/10/11 10:54:56;;;;;;;1999.90;999.90;;;23.80;99.90;;;;;;4939360;29;20055;-78
2023/10/11 10:57:24;;;;;;;1999.90;999.90;;;23.60;99.90;;;;;;4938915;29;20026;-73
2023/10/11 10:59:50;;;;;;;1999.90;999.90;;;23.70;99.90;;;;;;4924076;29;20031;-73
2023/10/11 11:02:19;;;;;;;1999.90;999.90;;;23.70;99.90;;;;;;4958225;29;20380;-73
2023/10/11 11:04:45;;;;;;;1999.90;999.90;;;23.80;99.90;;;;;;4958294;29;20102;-78
2023/10/11 11:07:22;;;;;;;1999.90;999.90;;;23.90;99.90;;;;;;4940292;29;20167;-79
2023/10/11 11:09:50;;;;;;;1999.90;999.90;;;24.10;99.90;;;;;;4938654;29;20038;-79
2023/10/11 11:12:17;;;;;;;1999.90;999.90;;;24.20;99.90;;;;;;4938030;29;20027;-73
2023/10/11 11:14:55;;;;;;;1999.90;999.90;;;24.30;99.90;;;;;;4938643;29;20024;-73
2023/10/11 11:17:23;;;;;;;1999.90;999.90;;;24.40;99.90;;;;;;4938609;29;20150;-79
2023/10/11 11:23:00;;;;;;;1999.90;999.90;;;24.20;99.90;;;;;;4925848;29;20052;-73
2023/10/11 11:30:43;;;;;;;1999.90;999.90;;;24.20;99.90;;;;;;4938508;29;20028;-79
2023/10/11 11:33:27;;;;;;;1999.90;999.90;;;24.40;99.90;;;;;;4921283;29;20119;-79
2023/10/11 11:35:55;;;;;;;1999.90;999.90;;;24.80;99.90;;;;;;4938482;29;20078;-79
2023/10/11 11:38:21;;;;;;;1999.90;999.90;;;24.60;99.90;;;;;;4933865;29;20114;-73
2023/10/11 11:40:48;;;;;;;1999.90;999.90;;;24.30;99.90;;;;;;4940812;29;20038;-79
2023/10/11 11:43:19;;;;;;;1999.90;999.90;;;24.50;99.90;;;;;;4937874;29;20023;-79
2023/10/11 11:45:47;;;;;;;1999.90;999.90;;;24.70;99.90;;;;;;4956389;29;20183;-79
2023/10/11 11:48:23;;;;;;;1999.90;999.90;;;24.80;99.90;;;;;;4956158;28;20022;-79
2023/10/11 11:50:49;;;;;;;1999.90;999.90;;;24.70;99.90;;;;;;4957003;29;20060;-72
2023/10/11 11:53:18;;;;;;;1999.90;999.90;;;24.80;99.90;;;;;;4923630;29;20113;-78
2023/10/11 11:55:45;;;;;;;1999.90;999.90;;;24.60;99.90;;;;;;4937731;29;20031;-79
2023/10/11 11:58:10;;;;;;;1999.90;999.90;;;24.60;99.90;;;;;;4937981;29;20071;-79
2023/10/11 12:00:39;;;;;;;1999.90;999.90;;;24.70;99.90;;;;;;4945901;29;20106;-79
2023/10/11 12:03:06;;;;;;;1999.90;999.90;;;24.90;99.90;;;;;;4956412;29;20034;-73
2023/10/11 12:05:42;;;;;;;1999.90;999.90;;;24.80;99.90;;;;;;4949952;29;20027;-73
2023/10/11 12:08:21;;;;;;;1999.90;999.90;;;24.90;99.90;;;;;;4929725;29;20123;-73
2023/10/11 12:10:49;;;;;;;1999.90;999.90;;;25.00;99.90;;;;;;4937235;29;20102;-78
2023/10/11 12:13:26;;;;;;;1999.90;999.90;;;24.90;99.90;;;;;;4937463;29;20024;-73
2023/10/11 12:15:55;;;;;;;1999.90;999.90;;;25.00;99.90;;;;;;4937496;29;20402;-73
2023/10/11 12:18:35;;;;;;;1999.90;999.90;;;25.30;99.90;;;;;;4937159;29;20036;-73
2023/10/11 12:21:10;;;;;;;1999.90;999.90;;;25.40;99.90;;;;;;4937502;29;20106;-73
2023/10/11 12:23:46;;;;;;;1999.90;999.90;;;25.60;99.90;;;;;;4937504;29;20163;-79
2023/10/11 12:26:12;;;;;;;1999.90;999.90;;;25.40;99.90;;;;;;4920194;29;20416;-79
2023/10/11 12:28:38;;;;;;;1999.90;999.90;;;25.60;99.90;;;;;;4937051;29;20471;-73
2023/10/11 12:31:04;;;;;;;1999.90;999.90;;;25.60;99.90;;;;;;4919933;29;20028;-73
2023/10/11 12:33:30;;;;;;;1999.90;999.90;;;25.60;99.90;;;;;;4937230;29;20023;-79
2023/10/11 12:35:56;;;;;;;1999.90;999.90;;;25.70;99.90;;;;;;4937196;29;20024;-79
2023/10/11 12:38:23;;;;;;;1999.90;999.90;;;25.70;99.90;;;;;;4945857;29;20027;-73
2023/10/11 12:40:49;;;;;;;1999.90;999.90;;;26.00;99.90;;;;;;4939614;29;20365;-73
2023/10/11 12:43:15;;;;;;;1999.90;999.90;;;26.00;99.90;;;;;;4936902;29;20055;-74
2023/10/11 12:45:43;;;;;;;1999.90;999.90;;;26.00;99.90;;;;;;4954661;29;20051;-79
2023/10/11 12:48:12;;;;;;;1999.90;999.90;;;26.10;99.90;;;;;;4956069;29;20547;-79
2023/10/11 12:50:38;;;;;;;1999.90;999.90;;;25.80;99.90;;;;;;4955929;29;20114;-79
2023/10/11 12:53:13;;;;;;;1999.90;999.90;;;25.70;99.90;;;;;;4925344;29;20110;-79
2023/10/11 12:55:41;;;;;;;1999.90;999.90;;;25.80;99.90;;;;;;4936784;29;20088;-73
2023/10/11 12:58:12;;;;;;;1999.90;999.90;;;25.90;99.90;;;;;;4936829;29;20024;-79
2023/10/11 13:00:53;;;;;;;1999.90;999.90;;;26.10;99.90;;;;;;4945227;29;20050;-79
2023/10/11 13:03:26;;;;;;;1999.90;999.90;;;26.10;99.90;;;;;;4937813;29;20504;-73
2023/10/11 13:05:52;;;;;;;1999.90;999.90;;;26.20;99.90;;;;;;4949765;29;20059;-79